sensor_id;sensor_type;location;lat;lon;timestamp;P1;durP1;ratioP1;P2;durP2;ratioP2
4808;SDS011;2418;49.930;8.606;2023-09-30T00:00:57;4.40;;;3.90;;
4808;SDS011;2418;49.930;8.606;2023-09-30T00:03:23;8.68;;;4.40;;
4808;SDS011;2418;49.930;8.606;2023-09-30T00:05:49;4.45;;;3.17;;
4808;SDS011;2418;49.930;8.606;2023-09-30T00:08:15;4.70;;;3.20;;
4808;SDS011;2418;49.930;8.606;2023-09-30T00:10:41;4.85;;;2.95;;
4808;SDS011;2418;49.930;8.606;2023-09-30T00:13:07;5.80;;;3.00;;
4808;SDS011;2418;49.930;8.606;2023-09-30T00:15:33;4.22;;;3.30;;
4808;SDS011;2418;49.930;8.606;2023-09-30T00:17:59;7.15;;;2.05;;
4808;SDS011;2418;49.930;8.606;2023-09-30T00:20:26;2.57;;;2.37;;
4808;SDS011;2418;49.930;8.606;2023-09-30T00:22:52;3.08;;;2.80;;
4808;SDS011;2418;49.930;8.606;2023-09-30T00:25:18;4.18;;;3.47;;
4808;SDS011;2418;49.930;8.606;2023-09-30T00:27:45;4.10;;;2.53;;
4808;SDS011;2418;49.930;8.606;2023-09-30T00:30:11;9.40;;;2.83;;
4808;SDS011;2418;49.930;8.606;2023-09-30T00:32:37;3.47;;;3.10;;
4808;SDS011;2418;49.930;8.606;2023-09-30T00:35:04;5.07;;;2.47;;
4808;SDS011;2418;49.930;8.606;2023-09-30T00:37:34;4.50;;;2.53;;
4808;SDS011;2418;49.930;8.606;2023-09-30T00:40:00;3.22;;;2.60;;
4808;SDS011;2418;49.930;8.606;2023-09-30T00:42:25;2.80;;;2.60;;
4808;SDS011;2418;49.930;8.606;2023-09-30T00:44:51;6.53;;;2.40;;
4808;SDS011;2418;49.930;8.606;2023-09-30T00:47:17;4.37;;;2.80;;
4808;SDS011;2418;49.930;8.606;2023-09-30T00:49:46;3.20;;;2.92;;
4808;SDS011;2418;49.930;8.606;2023-09-30T00:52:12;5.65;;;3.30;;
4808;SDS011;2418;49.930;8.606;2023-09-30T00:54:38;7.63;;;4.03;;
4808;SDS011;2418;49.930;8.606;2023-09-30T00:57:04;8.97;;;4.73;;
4808;SDS011;2418;49.930;8.606;2023-09-30T00:59:31;8.02;;;3.42;;
4808;SDS011;2418;49.930;8.606;2023-09-30T01:01:58;6.63;;;4.47;;
4808;SDS011;2418;49.930;8.606;2023-09-30T01:04:26;4.43;;;3.60;;
4808;SDS011;2418;49.930;8.606;2023-09-30T01:06:52;5.93;;;3.72;;
4808;SDS011;2418;49.930;8.606;2023-09-30T01:09:18;5.07;;;4.20;;
4808;SDS011;2418;49.930;8.606;2023-09-30T01:11:45;6.03;;;4.10;;
4808;SDS011;2418;49.930;8.606;2023-09-30T01:14:30;5.25;;;3.97;;
4808;SDS011;2418;49.930;8.606;2023-09-30T01:16:56;8.13;;;4.40;;
4808;SDS011;2418;49.930;8.606;2023-09-30T01:19:22;6.07;;;4.55;;
4808;SDS011;2418;49.930;8.606;2023-09-30T01:21:54;7.38;;;4.70;;
4808;SDS011;2418;49.930;8.606;2023-09-30T01:24:24;5.35;;;4.30;;
4808;SDS011;2418;49.930;8.606;2023-09-30T01:26:50;8.60;;;4.65;;
4808;SDS011;2418;49.930;8.606;2023-09-30T01:29:16;10.57;;;4.90;;
4808;SDS011;2418;49.930;8.606;2023-09-30T01:31:42;9.15;;;4.30;;
4808;SDS011;2418;49.930;8.606;2023-09-30T01:34:08;8.98;;;4.35;;
4808;SDS011;2418;49.930;8.606;2023-09-30T01:36:35;9.90;;;5.15;;
4808;SDS011;2418;49.930;8.606;2023-09-30T01:39:01;10.18;;;4.20;;
4808;SDS011;2418;49.930;8.606;2023-09-30T01:41:27;5.77;;;4.10;;
4808;SDS011;2418;49.930;8.606;2023-09-30T01:43:53;7.03;;;4.18;;
4808;SDS011;2418;49.930;8.606;2023-09-30T01:46:19;8.05;;;4.20;;
4808;SDS011;2418;49.930;8.606;2023-09-30T01:48:45;5.65;;;4.70;;
4808;SDS011;2418;49.930;8.606;2023-09-30T01:51:12;7.75;;;4.55;;
4808;SDS011;2418;49.930;8.606;2023-09-30T01:53:38;6.30;;;4.65;;
4808;SDS011;2418;49.930;8.606;2023-09-30T01:56:04;9.20;;;4.50;;
4808;SDS011;2418;49.930;8.606;2023-09-30T01:58:30;8.70;;;4.55;;
4808;SDS011;2418;49.930;8.606;2023-09-30T02:01:01;8.38;;;4.55;;
4808;SDS011;2418;49.930;8.606;2023-09-30T02:03:28;10.57;;;4.90;;
4808;SDS011;2418;49.930;8.606;2023-09-30T02:05:54;13.82;;;4.78;;
4808;SDS011;2418;49.930;8.606;2023-09-30T02:08:20;9.30;;;5.68;;
4808;SDS011;2418;49.930;8.606;2023-09-30T02:10:47;7.85;;;4.97;;
4808;SDS011;2418;49.930;8.606;2023-09-30T02:13:13;7.50;;;5.00;;
4808;SDS011;2418;49.930;8.606;2023-09-30T02:15:40;5.70;;;4.78;;
4808;SDS011;2418;49.930;8.606;2023-09-30T02:18:06;7.72;;;4.20;;
4808;SDS011;2418;49.930;8.606;2023-09-30T02:20:32;9.40;;;4.82;;
4808;SDS011;2418;49.930;8.606;2023-09-30T02:22:59;7.05;;;4.00;;
4808;SDS011;2418;49.930;8.606;2023-09-30T02:25:28;8.93;;;5.55;;
4808;SDS011;2418;49.930;8.606;2023-09-30T02:27:55;7.32;;;4.43;;
4808;SDS011;2418;49.930;8.606;2023-09-30T02:30:22;10.60;;;4.80;;
4808;SDS011;2418;49.930;8.606;2023-09-30T02:32:49;7.13;;;4.35;;
4808;SDS011;2418;49.930;8.606;2023-09-30T02:35:15;5.20;;;4.50;;
4808;SDS011;2418;49.930;8.606;2023-09-30T02:37:41;9.27;;;4.43;;
4808;SDS011;2418;49.930;8.606;2023-09-30T02:40:07;7.07;;;4.00;;
4808;SDS011;2418;49.930;8.606;2023-09-30T02:42:39;8.93;;;4.97;;
4808;SDS011;2418;49.930;8.606;2023-09-30T02:45:06;8.40;;;4.18;;
4808;SDS011;2418;49.930;8.606;2023-09-30T02:47:33;6.47;;;4.25;;
4808;SDS011;2418;49.930;8.606;2023-09-30T02:49:59;9.40;;;4.53;;
4808;SDS011;2418;49.930;8.606;2023-09-30T02:52:26;9.77;;;4.75;;
4808;SDS011;2418;49.930;8.606;2023-09-30T02:54:53;8.38;;;4.53;;
4808;SDS011;2418;49.930;8.606;2023-09-30T02:57:19;7.55;;;3.50;;
4808;SDS011;2418;49.930;8.606;2023-09-30T02:59:46;8.50;;;4.50;;
4808;SDS011;2418;49.930;8.606;2023-09-30T03:02:11;8.90;;;4.20;;
4808;SDS011;2418;49.930;8.606;2023-09-30T03:04:37;9.50;;;4.57;;
4808;SDS011;2418;49.930;8.606;2023-09-30T03:07:04;8.13;;;4.28;;
4808;SDS011;2418;49.930;8.606;2023-09-30T03:09:30;7.38;;;4.00;;
4808;SDS011;2418;49.930;8.606;2023-09-30T03:11:56;8.25;;;4.68;;
4808;SDS011;2418;49.930;8.606;2023-09-30T03:14:24;9.50;;;4.75;;
4808;SDS011;2418;49.930;8.606;2023-09-30T03:16:50;7.60;;;4.65;;
4808;SDS011;2418;49.930;8.606;2023-09-30T03:19:17;8.20;;;4.40;;
4808;SDS011;2418;49.930;8.606;2023-09-30T03:21:43;7.65;;;4.40;;
4808;SDS011;2418;49.930;8.606;2023-09-30T03:24:09;10.35;;;4.95;;
4808;SDS011;2418;49.930;8.606;2023-09-30T03:26:36;6.90;;;4.82;;
4808;SDS011;2418;49.930;8.606;2023-09-30T03:29:05;7.72;;;4.65;;
4808;SDS011;2418;49.930;8.606;2023-09-30T03:31:31;8.00;;;4.93;;
4808;SDS011;2418;49.930;8.606;2023-09-30T03:33:57;10.48;;;5.15;;
4808;SDS011;2418;49.930;8.606;2023-09-30T03:36:25;8.50;;;4.53;;
4808;SDS011;2418;49.930;8.606;2023-09-30T03:38:51;10.15;;;4.70;;
4808;SDS011;2418;49.930;8.606;2023-09-30T03:41:20;10.13;;;4.50;;
4808;SDS011;2418;49.930;8.606;2023-09-30T03:43:46;6.47;;;3.90;;
4808;SDS011;2418;49.930;8.606;2023-09-30T03:46:14;13.90;;;4.60;;
4808;SDS011;2418;49.930;8.606;2023-09-30T03:48:40;9.90;;;4.90;;
4808;SDS011;2418;49.930;8.606;2023-09-30T03:51:11;7.78;;;4.13;;
4808;SDS011;2418;49.930;8.606;2023-09-30T03:53:40;8.30;;;4.68;;
4808;SDS011;2418;49.930;8.606;2023-09-30T03:56:06;7.75;;;5.15;;
4808;SDS011;2418;49.930;8.606;2023-09-30T03:58:32;9.25;;;5.03;;
4808;SDS011;2418;49.930;8.606;2023-09-30T04:00:59;5.00;;;4.50;;
4808;SDS011;2418;49.930;8.606;2023-09-30T04:03:30;8.77;;;4.63;;
4808;SDS011;2418;49.930;8.606;2023-09-30T04:05:58;13.27;;;5.18;;
4808;SDS011;2418;49.930;8.606;2023-09-30T04:08:24;6.30;;;4.80;;
4808;SDS011;2418;49.930;8.606;2023-09-30T04:10:50;8.55;;;4.30;;
4808;SDS011;2418;49.930;8.606;2023-09-30T04:13:16;7.90;;;4.80;;
4808;SDS011;2418;49.930;8.606;2023-09-30T04:15:42;6.87;;;4.60;;
4808;SDS011;2418;49.930;8.606;2023-09-30T04:18:09;8.02;;;4.82;;
4808;SDS011;2418;49.930;8.606;2023-09-30T04:20:36;8.70;;;5.05;;
4808;SDS011;2418;49.930;8.606;2023-09-30T04:23:05;9.93;;;4.85;;
4808;SDS011;2418;49.930;8.606;2023-09-30T04:25:31;14.90;;;5.88;;
4808;SDS011;2418;49.930;8.606;2023-09-30T04:27:57;7.67;;;5.43;;
4808;SDS011;2418;49.930;8.606;2023-09-30T04:30:23;8.07;;;4.85;;
4808;SDS011;2418;49.930;8.606;2023-09-30T04:32:51;9.30;;;4.85;;
4808;SDS011;2418;49.930;8.606;2023-09-30T04:35:17;7.63;;;5.60;;
4808;SDS011;2418;49.930;8.606;2023-09-30T04:37:43;11.13;;;5.75;;
4808;SDS011;2418;49.930;8.606;2023-09-30T04:40:10;6.10;;;5.40;;
4808;SDS011;2418;49.930;8.606;2023-09-30T04:42:45;8.88;;;5.40;;
4808;SDS011;2418;49.930;8.606;2023-09-30T04:45:14;7.20;;;5.53;;
4808;SDS011;2418;49.930;8.606;2023-09-30T04:47:49;15.02;;;6.10;;
4808;SDS011;2418;49.930;8.606;2023-09-30T04:50:15;11.23;;;5.40;;
4808;SDS011;2418;49.930;8.606;2023-09-30T04:52:41;13.18;;;5.88;;
4808;SDS011;2418;49.930;8.606;2023-09-30T04:55:07;11.23;;;6.60;;
4808;SDS011;2418;49.930;8.606;2023-09-30T04:57:33;13.02;;;5.97;;
4808;SDS011;2418;49.930;8.606;2023-09-30T05:00:00;13.67;;;5.60;;
4808;SDS011;2418;49.930;8.606;2023-09-30T05:02:27;12.15;;;6.00;;
4808;SDS011;2418;49.930;8.606;2023-09-30T05:04:53;10.50;;;5.80;;
4808;SDS011;2418;49.930;8.606;2023-09-30T05:07:20;14.57;;;5.70;;
4808;SDS011;2418;49.930;8.606;2023-09-30T05:09:49;15.15;;;6.25;;
4808;SDS011;2418;49.930;8.606;2023-09-30T05:12:15;14.15;;;5.20;;
4808;SDS011;2418;49.930;8.606;2023-09-30T05:14:41;8.40;;;5.60;;
4808;SDS011;2418;49.930;8.606;2023-09-30T05:17:08;15.35;;;5.72;;
4808;SDS011;2418;49.930;8.606;2023-09-30T05:19:34;14.30;;;5.80;;
4808;SDS011;2418;49.930;8.606;2023-09-30T05:22:10;16.63;;;6.68;;
4808;SDS011;2418;49.930;8.606;2023-09-30T05:24:37;14.85;;;6.78;;
4808;SDS011;2418;49.930;8.606;2023-09-30T05:27:03;10.13;;;5.80;;
4808;SDS011;2418;49.930;8.606;2023-09-30T05:29:29;10.45;;;5.80;;
4808;SDS011;2418;49.930;8.606;2023-09-30T05:31:58;11.00;;;6.53;;
4808;SDS011;2418;49.930;8.606;2023-09-30T05:34:24;12.37;;;6.43;;
4808;SDS011;2418;49.930;8.606;2023-09-30T05:36:50;17.50;;;6.38;;
4808;SDS011;2418;49.930;8.606;2023-09-30T05:39:16;10.90;;;6.53;;
4808;SDS011;2418;49.930;8.606;2023-09-30T05:41:45;12.73;;;6.75;;
4808;SDS011;2418;49.930;8.606;2023-09-30T05:44:11;8.35;;;6.30;;
4808;SDS011;2418;49.930;8.606;2023-09-30T05:46:39;13.45;;;7.50;;
4808;SDS011;2418;49.930;8.606;2023-09-30T05:49:05;11.02;;;6.40;;
4808;SDS011;2418;49.930;8.606;2023-09-30T05:51:36;9.30;;;7.13;;
4808;SDS011;2418;49.930;8.606;2023-09-30T05:54:02;12.32;;;7.80;;
4808;SDS011;2418;49.930;8.606;2023-09-30T05:56:30;12.38;;;7.30;;
4808;SDS011;2418;49.930;8.606;2023-09-30T05:58:56;16.52;;;7.95;;
4808;SDS011;2418;49.930;8.606;2023-09-30T06:01:22;14.87;;;7.20;;
4808;SDS011;2418;49.930;8.606;2023-09-30T06:03:48;19.70;;;7.47;;
4808;SDS011;2418;49.930;8.606;2023-09-30T06:06:14;13.45;;;6.53;;
4808;SDS011;2418;49.930;8.606;2023-09-30T06:08:42;7.43;;;6.72;;
4808;SDS011;2418;49.930;8.606;2023-09-30T06:11:17;10.57;;;6.93;;
4808;SDS011;2418;49.930;8.606;2023-09-30T06:13:44;8.75;;;6.50;;
4808;SDS011;2418;49.930;8.606;2023-09-30T06:16:11;12.43;;;6.80;;
4808;SDS011;2418;49.930;8.606;2023-09-30T06:18:37;7.30;;;5.80;;
4808;SDS011;2418;49.930;8.606;2023-09-30T06:21:03;14.02;;;6.97;;
4808;SDS011;2418;49.930;8.606;2023-09-30T06:23:30;15.15;;;6.40;;
4808;SDS011;2418;49.930;8.606;2023-09-30T06:25:56;12.68;;;7.00;;
4808;SDS011;2418;49.930;8.606;2023-09-30T06:28:22;12.25;;;7.00;;
4808;SDS011;2418;49.930;8.606;2023-09-30T06:30:51;11.68;;;6.00;;
4808;SDS011;2418;49.930;8.606;2023-09-30T06:33:17;6.88;;;6.18;;
4808;SDS011;2418;49.930;8.606;2023-09-30T06:35:43;12.63;;;6.32;;
4808;SDS011;2418;49.930;8.606;2023-09-30T06:38:21;10.43;;;6.90;;
4808;SDS011;2418;49.930;8.606;2023-09-30T06:40:47;15.77;;;6.60;;
4808;SDS011;2418;49.930;8.606;2023-09-30T06:43:14;8.77;;;6.10;;
4808;SDS011;2418;49.930;8.606;2023-09-30T06:45:43;9.82;;;6.15;;
4808;SDS011;2418;49.930;8.606;2023-09-30T06:48:11;8.70;;;5.88;;
4808;SDS011;2418;49.930;8.606;2023-09-30T06:50:48;8.25;;;6.72;;
4808;SDS011;2418;49.930;8.606;2023-09-30T06:53:15;10.98;;;5.70;;
4808;SDS011;2418;49.930;8.606;2023-09-30T06:55:41;11.00;;;6.90;;
4808;SDS011;2418;49.930;8.606;2023-09-30T06:58:08;12.80;;;6.80;;
4808;SDS011;2418;49.930;8.606;2023-09-30T07:00:35;7.90;;;6.20;;
4808;SDS011;2418;49.930;8.606;2023-09-30T07:03:01;9.45;;;6.53;;
4808;SDS011;2418;49.930;8.606;2023-09-30T07:05:28;16.35;;;8.00;;
4808;SDS011;2418;49.930;8.606;2023-09-30T07:07:54;10.55;;;6.80;;
4808;SDS011;2418;49.930;8.606;2023-09-30T07:10:20;13.83;;;6.80;;
4808;SDS011;2418;49.930;8.606;2023-09-30T07:12:49;10.23;;;7.20;;
4808;SDS011;2418;49.930;8.606;2023-09-30T07:15:15;10.70;;;6.95;;
4808;SDS011;2418;49.930;8.606;2023-09-30T07:17:42;17.13;;;7.18;;
4808;SDS011;2418;49.930;8.606;2023-09-30T07:20:08;14.70;;;6.80;;
4808;SDS011;2418;49.930;8.606;2023-09-30T07:22:34;12.05;;;6.63;;
4808;SDS011;2418;49.930;8.606;2023-09-30T07:25:01;12.07;;;7.05;;
4808;SDS011;2418;49.930;8.606;2023-09-30T07:27:28;10.13;;;6.85;;
4808;SDS011;2418;49.930;8.606;2023-09-30T07:29:54;15.20;;;7.30;;
4808;SDS011;2418;49.930;8.606;2023-09-30T07:32:20;10.95;;;7.63;;
4808;SDS011;2418;49.930;8.606;2023-09-30T07:34:49;11.00;;;6.95;;
4808;SDS011;2418;49.930;8.606;2023-09-30T07:37:16;13.57;;;6.90;;
4808;SDS011;2418;49.930;8.606;2023-09-30T07:39:45;10.80;;;7.70;;
4808;SDS011;2418;49.930;8.606;2023-09-30T07:42:11;12.18;;;7.15;;
4808;SDS011;2418;49.930;8.606;2023-09-30T07:44:37;9.50;;;6.57;;
4808;SDS011;2418;49.930;8.606;2023-09-30T07:47:04;12.27;;;7.00;;
4808;SDS011;2418;49.930;8.606;2023-09-30T07:49:31;17.20;;;7.28;;
4808;SDS011;2418;49.930;8.606;2023-09-30T07:51:58;16.10;;;7.72;;
4808;SDS011;2418;49.930;8.606;2023-09-30T07:54:28;12.43;;;6.78;;
4808;SDS011;2418;49.930;8.606;2023-09-30T07:56:54;11.80;;;6.82;;
4808;SDS011;2418;49.930;8.606;2023-09-30T07:59:20;13.97;;;8.27;;
4808;SDS011;2418;49.930;8.606;2023-09-30T08:01:47;10.85;;;7.00;;
4808;SDS011;2418;49.930;8.606;2023-09-30T08:04:14;9.82;;;7.40;;
4808;SDS011;2418;49.930;8.606;2023-09-30T08:06:39;10.17;;;7.20;;
4808;SDS011;2418;49.930;8.606;2023-09-30T08:09:05;9.87;;;5.80;;
4808;SDS011;2418;49.930;8.606;2023-09-30T08:11:36;6.25;;;5.65;;
4808;SDS011;2418;49.930;8.606;2023-09-30T08:14:05;14.43;;;6.50;;
4808;SDS011;2418;49.930;8.606;2023-09-30T08:16:34;8.73;;;6.07;;
4808;SDS011;2418;49.930;8.606;2023-09-30T08:19:00;11.75;;;6.18;;
4808;SDS011;2418;49.930;8.606;2023-09-30T08:21:26;11.27;;;6.35;;
4808;SDS011;2418;49.930;8.606;2023-09-30T08:23:52;11.23;;;6.30;;
4808;SDS011;2418;49.930;8.606;2023-09-30T08:26:19;8.93;;;4.90;;
4808;SDS011;2418;49.930;8.606;2023-09-30T08:28:45;7.78;;;5.03;;
4808;SDS011;2418;49.930;8.606;2023-09-30T08:31:12;11.07;;;5.60;;
4808;SDS011;2418;49.930;8.606;2023-09-30T08:33:39;9.55;;;5.82;;
4808;SDS011;2418;49.930;8.606;2023-09-30T08:36:08;11.40;;;6.25;;
4808;SDS011;2418;49.930;8.606;2023-09-30T08:38:38;7.20;;;4.35;;
4808;SDS011;2418;49.930;8.606;2023-09-30T08:41:07;11.60;;;5.20;;
4808;SDS011;2418;49.930;8.606;2023-09-30T08:43:39;8.98;;;5.15;;
4808;SDS011;2418;49.930;8.606;2023-09-30T08:46:06;10.05;;;4.68;;
4808;SDS011;2418;49.930;8.606;2023-09-30T08:48:33;9.60;;;4.60;;
4808;SDS011;2418;49.930;8.606;2023-09-30T08:51:00;7.03;;;4.00;;
4808;SDS011;2418;49.930;8.606;2023-09-30T08:53:26;5.90;;;3.60;;
4808;SDS011;2418;49.930;8.606;2023-09-30T08:55:54;5.32;;;3.90;;
4808;SDS011;2418;49.930;8.606;2023-09-30T08:58:24;5.63;;;3.97;;
4808;SDS011;2418;49.930;8.606;2023-09-30T09:00:50;6.10;;;4.40;;
4808;SDS011;2418;49.930;8.606;2023-09-30T09:03:18;7.72;;;4.20;;
4808;SDS011;2418;49.930;8.606;2023-09-30T09:05:45;9.85;;;4.38;;
4808;SDS011;2418;49.930;8.606;2023-09-30T09:08:11;10.80;;;4.45;;
4808;SDS011;2418;49.930;8.606;2023-09-30T09:10:52;7.25;;;4.20;;
4808;SDS011;2418;49.930;8.606;2023-09-30T09:13:19;11.68;;;4.00;;
4808;SDS011;2418;49.930;8.606;2023-09-30T09:15:45;8.05;;;4.25;;
4808;SDS011;2418;49.930;8.606;2023-09-30T09:18:11;8.20;;;3.90;;
4808;SDS011;2418;49.930;8.606;2023-09-30T09:20:40;6.80;;;3.92;;
4808;SDS011;2418;49.930;8.606;2023-09-30T09:23:06;9.15;;;3.97;;
4808;SDS011;2418;49.930;8.606;2023-09-30T09:25:37;5.60;;;3.90;;
4808;SDS011;2418;49.930;8.606;2023-09-30T09:28:04;5.82;;;3.58;;
4808;SDS011;2418;49.930;8.606;2023-09-30T09:30:30;5.28;;;4.35;;
4808;SDS011;2418;49.930;8.606;2023-09-30T09:35:29;10.07;;;4.63;;
4808;SDS011;2418;49.930;8.606;2023-09-30T09:38:06;5.15;;;3.50;;
4808;SDS011;2418;49.930;8.606;2023-09-30T09:40:33;5.75;;;3.10;;
4808;SDS011;2418;49.930;8.606;2023-09-30T09:43:00;4.60;;;3.42;;
4808;SDS011;2418;49.930;8.606;2023-09-30T09:45:30;5.50;;;3.10;;
4808;SDS011;2418;49.930;8.606;2023-09-30T09:47:57;9.43;;;3.00;;
4808;SDS011;2418;49.930;8.606;2023-09-30T09:50:23;4.38;;;3.13;;
4808;SDS011;2418;49.930;8.606;2023-09-30T09:52:51;4.13;;;2.90;;
4808;SDS011;2418;49.930;8.606;2023-09-30T09:55:18;3.63;;;2.50;;
4808;SDS011;2418;49.930;8.606;2023-09-30T09:57:45;5.30;;;2.75;;
4808;SDS011;2418;49.930;8.606;2023-09-30T10:00:13;6.30;;;3.23;;
4808;SDS011;2418;49.930;8.606;2023-09-30T10:02:42;3.67;;;2.72;;
4808;SDS011;2418;49.930;8.606;2023-09-30T10:05:08;2.55;;;2.25;;
4808;SDS011;2418;49.930;8.606;2023-09-30T10:07:37;3.85;;;2.70;;
4808;SDS011;2418;49.930;8.606;2023-09-30T10:10:05;4.20;;;2.60;;
4808;SDS011;2418;49.930;8.606;2023-09-30T10:12:36;3.80;;;2.53;;
4808;SDS011;2418;49.930;8.606;2023-09-30T10:15:33;9.10;;;2.70;;
4808;SDS011;2418;49.930;8.606;2023-09-30T10:18:04;4.95;;;2.80;;
4808;SDS011;2418;49.930;8.606;2023-09-30T10:20:35;4.15;;;2.60;;
4808;SDS011;2418;49.930;8.606;2023-09-30T10:25:42;4.53;;;2.53;;
4808;SDS011;2418;49.930;8.606;2023-09-30T10:31:14;5.63;;;3.30;;
4808;SDS011;2418;49.930;8.606;2023-09-30T10:36:29;5.90;;;3.00;;
4808;SDS011;2418;49.930;8.606;2023-09-30T10:38:56;6.75;;;3.05;;
4808;SDS011;2418;49.930;8.606;2023-09-30T10:46:52;4.53;;;2.90;;
4808;SDS011;2418;49.930;8.606;2023-09-30T10:51:54;3.85;;;3.20;;
4808;SDS011;2418;49.930;8.606;2023-09-30T10:54:30;5.50;;;3.10;;
4808;SDS011;2418;49.930;8.606;2023-09-30T10:56:57;5.30;;;3.35;;
4808;SDS011;2418;49.930;8.606;2023-09-30T10:59:24;5.90;;;3.70;;
4808;SDS011;2418;49.930;8.606;2023-09-30T11:01:51;5.82;;;3.10;;
4808;SDS011;2418;49.930;8.606;2023-09-30T11:04:18;4.95;;;3.00;;
4808;SDS011;2418;49.930;8.606;2023-09-30T11:06:44;5.20;;;2.72;;
4808;SDS011;2418;49.930;8.606;2023-09-30T11:09:14;8.02;;;2.80;;
4808;SDS011;2418;49.930;8.606;2023-09-30T11:11:42;6.72;;;3.30;;
4808;SDS011;2418;49.930;8.606;2023-09-30T11:14:17;3.10;;;2.80;;
4808;SDS011;2418;49.930;8.606;2023-09-30T11:16:43;5.70;;;3.22;;
4808;SDS011;2418;49.930;8.606;2023-09-30T11:19:09;5.82;;;3.75;;
4808;SDS011;2418;49.930;8.606;2023-09-30T11:21:36;3.42;;;3.05;;
4808;SDS011;2418;49.930;8.606;2023-09-30T11:24:02;6.82;;;3.15;;
4808;SDS011;2418;49.930;8.606;2023-09-30T11:26:31;2.67;;;2.58;;
4808;SDS011;2418;49.930;8.606;2023-09-30T11:29:04;8.65;;;2.80;;
4808;SDS011;2418;49.930;8.606;2023-09-30T11:31:30;3.15;;;2.70;;
4808;SDS011;2418;49.930;8.606;2023-09-30T11:34:00;3.35;;;2.60;;
4808;SDS011;2418;49.930;8.606;2023-09-30T11:36:29;4.60;;;2.83;;
4808;SDS011;2418;49.930;8.606;2023-09-30T11:38:56;6.90;;;2.60;;
4808;SDS011;2418;49.930;8.606;2023-09-30T11:41:22;2.92;;;2.28;;
4808;SDS011;2418;49.930;8.606;2023-09-30T11:44:01;3.63;;;1.87;;
4808;SDS011;2418;49.930;8.606;2023-09-30T11:46:29;2.67;;;2.38;;
4808;SDS011;2418;49.930;8.606;2023-09-30T11:48:56;4.25;;;2.88;;
4808;SDS011;2418;49.930;8.606;2023-09-30T11:51:24;3.53;;;3.20;;
4808;SDS011;2418;49.930;8.606;2023-09-30T11:53:51;6.05;;;3.75;;
4808;SDS011;2418;49.930;8.606;2023-09-30T11:56:18;4.50;;;2.95;;
4808;SDS011;2418;49.930;8.606;2023-09-30T11:58:44;4.28;;;2.58;;
4808;SDS011;2418;49.930;8.606;2023-09-30T12:01:14;3.78;;;2.90;;
4808;SDS011;2418;49.930;8.606;2023-09-30T12:03:41;3.20;;;2.95;;
4808;SDS011;2418;49.930;8.606;2023-09-30T12:06:07;4.65;;;3.45;;
4808;SDS011;2418;49.930;8.606;2023-09-30T12:08:33;3.90;;;3.20;;
4808;SDS011;2418;49.930;8.606;2023-09-30T12:10:59;5.20;;;3.10;;
4808;SDS011;2418;49.930;8.606;2023-09-30T12:13:25;7.43;;;3.28;;
4808;SDS011;2418;49.930;8.606;2023-09-30T12:15:51;4.00;;;2.95;;
4808;SDS011;2418;49.930;8.606;2023-09-30T12:18:22;7.00;;;2.70;;
4808;SDS011;2418;49.930;8.606;2023-09-30T12:20:49;4.28;;;2.70;;
4808;SDS011;2418;49.930;8.606;2023-09-30T12:23:17;3.88;;;2.80;;
4808;SDS011;2418;49.930;8.606;2023-09-30T12:25:46;6.28;;;2.65;;
4808;SDS011;2418;49.930;8.606;2023-09-30T12:28:12;2.65;;;2.45;;
4808;SDS011;2418;49.930;8.606;2023-09-30T12:30:40;4.40;;;2.60;;
4808;SDS011;2418;49.930;8.606;2023-09-30T12:33:06;2.87;;;2.67;;
4808;SDS011;2418;49.930;8.606;2023-09-30T12:35:33;4.35;;;2.33;;
4808;SDS011;2418;49.930;8.606;2023-09-30T12:38:00;6.60;;;3.10;;
4808;SDS011;2418;49.930;8.606;2023-09-30T12:40:26;2.83;;;2.53;;
4808;SDS011;2418;49.930;8.606;2023-09-30T12:42:53;3.60;;;2.90;;
4808;SDS011;2418;49.930;8.606;2023-09-30T12:45:19;2.60;;;2.50;;
4808;SDS011;2418;49.930;8.606;2023-09-30T12:47:45;3.40;;;3.10;;
4808;SDS011;2418;49.930;8.606;2023-09-30T12:50:13;3.50;;;3.20;;
4808;SDS011;2418;49.930;8.606;2023-09-30T12:52:39;3.92;;;3.40;;
4808;SDS011;2418;49.930;8.606;2023-09-30T12:55:05;4.75;;;3.10;;
4808;SDS011;2418;49.930;8.606;2023-09-30T12:57:31;5.53;;;2.92;;
4808;SDS011;2418;49.930;8.606;2023-09-30T12:59:57;6.50;;;2.50;;
4808;SDS011;2418;49.930;8.606;2023-09-30T13:02:23;5.13;;;3.40;;
4808;SDS011;2418;49.930;8.606;2023-09-30T13:04:49;4.25;;;2.67;;
4808;SDS011;2418;49.930;8.606;2023-09-30T13:07:15;3.50;;;2.43;;
4808;SDS011;2418;49.930;8.606;2023-09-30T13:09:41;3.00;;;2.70;;
4808;SDS011;2418;49.930;8.606;2023-09-30T13:12:07;3.08;;;2.67;;
4808;SDS011;2418;49.930;8.606;2023-09-30T13:14:34;2.97;;;2.67;;
4808;SDS011;2418;49.930;8.606;2023-09-30T13:17:00;5.07;;;2.60;;
4808;SDS011;2418;49.930;8.606;2023-09-30T13:19:26;3.45;;;2.80;;
4808;SDS011;2418;49.930;8.606;2023-09-30T13:21:52;8.60;;;2.78;;
4808;SDS011;2418;49.930;8.606;2023-09-30T13:24:20;3.30;;;3.00;;
4808;SDS011;2418;49.930;8.606;2023-09-30T13:26:47;3.90;;;2.65;;
4808;SDS011;2418;49.930;8.606;2023-09-30T13:29:14;5.50;;;3.33;;
4808;SDS011;2418;49.930;8.606;2023-09-30T13:31:42;5.57;;;3.10;;
4808;SDS011;2418;49.930;8.606;2023-09-30T13:34:09;2.90;;;2.20;;
4808;SDS011;2418;49.930;8.606;2023-09-30T13:36:37;3.50;;;2.58;;
4808;SDS011;2418;49.930;8.606;2023-09-30T13:39:03;5.90;;;2.97;;
4808;SDS011;2418;49.930;8.606;2023-09-30T13:41:33;5.15;;;2.78;;
4808;SDS011;2418;49.930;8.606;2023-09-30T13:43:59;3.45;;;3.15;;
4808;SDS011;2418;49.930;8.606;2023-09-30T13:46:25;2.97;;;2.78;;
4808;SDS011;2418;49.930;8.606;2023-09-30T13:48:53;3.80;;;2.47;;
4808;SDS011;2418;49.930;8.606;2023-09-30T13:51:19;5.30;;;2.30;;
4808;SDS011;2418;49.930;8.606;2023-09-30T13:53:45;5.68;;;2.70;;
4808;SDS011;2418;49.930;8.606;2023-09-30T13:56:11;3.87;;;3.07;;
4808;SDS011;2418;49.930;8.606;2023-09-30T13:58:37;7.50;;;2.80;;
4808;SDS011;2418;49.930;8.606;2023-09-30T14:01:03;3.33;;;2.83;;
4808;SDS011;2418;49.930;8.606;2023-09-30T14:03:30;4.30;;;2.72;;
4808;SDS011;2418;49.930;8.606;2023-09-30T14:05:56;2.80;;;2.40;;
4808;SDS011;2418;49.930;8.606;2023-09-30T14:08:23;4.05;;;2.50;;
4808;SDS011;2418;49.930;8.606;2023-09-30T14:10:49;2.80;;;2.35;;
4808;SDS011;2418;49.930;8.606;2023-09-30T14:13:16;6.32;;;2.50;;
4808;SDS011;2418;49.930;8.606;2023-09-30T14:15:42;5.97;;;2.67;;
4808;SDS011;2418;49.930;8.606;2023-09-30T14:18:08;6.25;;;3.65;;
4808;SDS011;2418;49.930;8.606;2023-09-30T14:20:34;4.53;;;3.22;;
4808;SDS011;2418;49.930;8.606;2023-09-30T14:23:00;2.67;;;2.47;;
4808;SDS011;2418;49.930;8.606;2023-09-30T14:25:27;5.43;;;2.70;;
4808;SDS011;2418;49.930;8.606;2023-09-30T14:27:53;3.03;;;2.75;;
4808;SDS011;2418;49.930;8.606;2023-09-30T14:30:19;3.35;;;2.45;;
4808;SDS011;2418;49.930;8.606;2023-09-30T14:32:46;4.85;;;2.60;;
4808;SDS011;2418;49.930;8.606;2023-09-30T14:35:12;3.10;;;2.80;;
4808;SDS011;2418;49.930;8.606;2023-09-30T14:37:40;4.47;;;3.10;;
4808;SDS011;2418;49.930;8.606;2023-09-30T14:40:06;3.00;;;2.80;;
4808;SDS011;2418;49.930;8.606;2023-09-30T14:42:36;2.90;;;2.70;;
4808;SDS011;2418;49.930;8.606;2023-09-30T14:45:02;3.55;;;2.80;;
4808;SDS011;2418;49.930;8.606;2023-09-30T14:47:29;6.05;;;2.88;;
4808;SDS011;2418;49.930;8.606;2023-09-30T14:49:55;3.20;;;2.50;;
4808;SDS011;2418;49.930;8.606;2023-09-30T14:52:21;4.37;;;2.90;;
4808;SDS011;2418;49.930;8.606;2023-09-30T14:54:49;4.50;;;2.50;;
4808;SDS011;2418;49.930;8.606;2023-09-30T14:57:16;3.00;;;2.80;;
4808;SDS011;2418;49.930;8.606;2023-09-30T14:59:45;2.88;;;2.65;;
4808;SDS011;2418;49.930;8.606;2023-09-30T15:02:11;6.43;;;2.70;;
4808;SDS011;2418;49.930;8.606;2023-09-30T15:04:37;7.80;;;3.10;;
4808;SDS011;2418;49.930;8.606;2023-09-30T15:07:03;5.30;;;2.90;;
4808;SDS011;2418;49.930;8.606;2023-09-30T15:09:29;10.20;;;2.65;;
4808;SDS011;2418;49.930;8.606;2023-09-30T15:11:55;5.50;;;3.20;;
4808;SDS011;2418;49.930;8.606;2023-09-30T15:14:21;3.78;;;3.10;;
4808;SDS011;2418;49.930;8.606;2023-09-30T15:16:50;3.20;;;2.90;;
4808;SDS011;2418;49.930;8.606;2023-09-30T15:19:16;3.30;;;2.40;;
4808;SDS011;2418;49.930;8.606;2023-09-30T15:21:42;3.42;;;2.60;;
4808;SDS011;2418;49.930;8.606;2023-09-30T15:24:08;3.92;;;3.10;;
4808;SDS011;2418;49.930;8.606;2023-09-30T15:26:35;4.30;;;2.60;;
4808;SDS011;2418;49.930;8.606;2023-09-30T15:29:03;2.95;;;2.50;;
4808;SDS011;2418;49.930;8.606;2023-09-30T15:31:30;3.83;;;2.60;;